createdAt,value
2023-01-19T00:01:13.613Z,98842.25
2023-01-19T00:03:59.410Z,98840.88
2023-01-19T00:06:44.833Z,98844.97
2023-01-19T00:09:33.403Z,98843.88
2023-01-19T00:12:19.126Z,98819.47
2023-01-19T00:15:06.725Z,98883.72
2023-01-19T00:17:52.416Z,98869.81
2023-01-19T00:20:39.302Z,98897.22
2023-01-19T00:23:25.075Z,98894.28
2023-01-19T00:26:11.118Z,98855.06
2023-01-19T00:28:56.529Z,98884.38
2023-01-19T00:31:43.112Z,98869.59
2023-01-19T00:34:36.792Z,98843.84
2023-01-19T00:37:22.925Z,98869.19
2023-01-19T00:40:09.160Z,98911.63
2023-01-19T00:42:55.854Z,98886.09
2023-01-19T00:45:42.152Z,98914.63
2023-01-19T00:48:29.547Z,98892.88
2023-01-19T00:51:14.952Z,98907.09
2023-01-19T00:54:04.983Z,98910.63
2023-01-19T00:56:50.974Z,98904.72
2023-01-19T00:59:37.044Z,98845.53
2023-01-19T01:02:22.620Z,98908.50
2023-01-19T01:05:09.692Z,98906.06
2023-01-19T01:07:55.310Z,98902.28
2023-01-19T01:10:41.437Z,98915.50
2023-01-19T01:13:28.041Z,98920.09
2023-01-19T01:16:17.330Z,98927.34
2023-01-19T01:19:03.264Z,98904.50
2023-01-19T01:21:49.458Z,98923.84
2023-01-19T01:24:34.855Z,98937.31
2023-01-19T01:27:20.881Z,98909.31
2023-01-19T01:30:07.611Z,98921.41
2023-01-19T01:32:53.794Z,98941.63
2023-01-19T01:35:39.708Z,98933.81
2023-01-19T01:38:25.681Z,98884.91
2023-01-19T01:41:11.074Z,98949.47
2023-01-19T01:44:02.362Z,98953.50
2023-01-19T01:46:48.329Z,98963.19
2023-01-19T01:49:34.328Z,98907.19
2023-01-19T01:52:20.604Z,98947.47
2023-01-19T01:55:07.234Z,98960.94
2023-01-19T01:57:58.877Z,98955.53
2023-01-19T02:01:03.461Z,98910.69
2023-01-19T02:03:50.064Z,98932.50
2023-01-19T02:06:54.710Z,98969.97
2023-01-19T02:09:59.251Z,98965.91
2023-01-19T02:13:03.720Z,98959.50
2023-01-19T02:15:54.855Z,98990.22
2023-01-19T02:18:41.201Z,98956.81
2023-01-19T02:21:44.844Z,98989.13
2023-01-19T02:24:30.668Z,98931.81
2023-01-19T02:27:16.612Z,98989.41
2023-01-19T02:30:03.807Z,99009.66
2023-01-19T02:32:49.773Z,98990.22
2023-01-19T02:35:38.004Z,98988.63
2023-01-19T02:38:26.961Z,98981.88
2023-01-19T02:41:16.976Z,98987.00
2023-01-19T02:44:03.475Z,98995.38
2023-01-19T02:46:49.539Z,98976.78
2023-01-19T02:49:36.282Z,98992.44
2023-01-19T02:52:22.656Z,98970.38
2023-01-19T02:55:11.029Z,99000.50
2023-01-19T02:58:12.227Z,98944.78
2023-01-19T03:01:16.769Z,98943.44
2023-01-19T03:04:12.415Z,99002.13
2023-01-19T03:07:26.693Z,98982.19
2023-01-19T03:10:31.076Z,98978.19
2023-01-19T03:13:40.715Z,98972.81
2023-01-19T03:16:42.019Z,98983.84
2023-01-19T03:19:37.057Z,98948.03
2023-01-19T03:22:27.194Z,99001.88
2023-01-19T03:25:15.195Z,99006.19
2023-01-19T03:28:02.177Z,99007.78
2023-01-19T03:30:53.152Z,98996.69
2023-01-19T03:33:41.313Z,99001.81
2023-01-19T03:36:36.347Z,99004.25
2023-01-19T03:39:24.238Z,98981.13
2023-01-19T03:42:12.858Z,98999.97
2023-01-19T03:45:00.027Z,99013.75
2023-01-19T03:47:45.372Z,99016.41
2023-01-19T03:50:31.949Z,98960.69
2023-01-19T03:53:17.535Z,98987.34
2023-01-19T03:56:03.855Z,99020.47
2023-01-19T03:58:49.656Z,99017.78
2023-01-19T04:01:35.897Z,99013.22
2023-01-19T04:04:21.819Z,99019.66
2023-01-19T04:07:09.765Z,99018.31
2023-01-19T04:09:55.268Z,99018.53
2023-01-19T04:12:41.190Z,99018.50
2023-01-19T04:15:27.562Z,98959.03
2023-01-19T04:18:13.386Z,98998.88
2023-01-19T04:21:06.267Z,99019.31
2023-01-19T04:23:53.287Z,99024.47
2023-01-19T04:26:38.905Z,99018.25
2023-01-19T04:29:25.018Z,99000.16
2023-01-19T04:32:10.876Z,99010.41
2023-01-19T04:34:56.631Z,99013.44
2023-01-19T04:37:42.885Z,99003.75
2023-01-19T04:40:28.821Z,99010.22
2023-01-19T04:43:14.350Z,99021.81
2023-01-19T04:46:00.161Z,98978.47
2023-01-19T04:48:45.327Z,99004.28
2023-01-19T04:51:31.388Z,99033.66
2023-01-19T04:54:16.949Z,99036.66
2023-01-19T04:57:02.661Z,99022.41
2023-01-19T04:59:48.096Z,99036.41
2023-01-19T05:02:34.581Z,99019.47
2023-01-19T05:05:20.544Z,99049.38
2023-01-19T05:08:06.488Z,99035.63
2023-01-19T05:10:51.896Z,99049.94
2023-01-19T05:13:37.638Z,99034.56
2023-01-19T05:16:23.550Z,99054.00
2023-01-19T05:19:09.481Z,99049.44
2023-01-19T05:21:54.841Z,99071.00
2023-01-19T05:24:40.629Z,99066.38
2023-01-19T05:27:26.583Z,99019.53
2023-01-19T05:30:13.554Z,99007.94
2023-01-19T05:32:59.314Z,99041.31
2023-01-19T05:35:45.569Z,99044.28
2023-01-19T05:38:35.629Z,99047.50
2023-01-19T05:41:21.655Z,99000.91
2023-01-19T05:44:07.187Z,99055.34
2023-01-19T05:46:53.028Z,99062.06
2023-01-19T05:49:38.899Z,99004.16
2023-01-19T05:52:25.383Z,99079.06
2023-01-19T05:55:11.767Z,99092.03
2023-01-19T05:57:57.474Z,99098.50
2023-01-19T06:00:43.063Z,99104.44
2023-01-19T06:03:28.906Z,99098.25
2023-01-19T06:06:15.420Z,99114.97
2023-01-19T06:09:01.688Z,99088.84
2023-01-19T06:11:47.437Z,99134.16
2023-01-19T06:14:33.232Z,99150.88
2023-01-19T06:17:18.806Z,99162.19
2023-01-19T06:20:05.420Z,99158.16
2023-01-19T06:22:51.175Z,99166.53
2023-01-19T06:25:36.834Z,99167.31
2023-01-19T06:28:22.491Z,99174.06
2023-01-19T06:31:08.538Z,99174.59
2023-01-19T06:33:54.505Z,99152.22
2023-01-19T06:36:40.427Z,99167.59
2023-01-19T06:39:27.363Z,99179.75
2023-01-19T06:42:13.427Z,99179.19
2023-01-19T06:44:58.932Z,99163.53
2023-01-19T06:47:47.714Z,99122.56
2023-01-19T06:50:33.372Z,99181.88
2023-01-19T06:53:22.654Z,99178.34
2023-01-19T06:56:09.560Z,99178.91
2023-01-19T06:58:55.635Z,99167.03
2023-01-19T07:01:41.269Z,99151.69
2023-01-19T07:04:27.575Z,99176.50
2023-01-19T07:07:13.210Z,99193.22
2023-01-19T07:09:59.276Z,99211.84
2023-01-19T07:12:47.298Z,99188.94
2023-01-19T07:15:33.607Z,99214.28
2023-01-19T07:18:19.042Z,99232.38
2023-01-19T07:21:05.551Z,99230.78
2023-01-19T07:23:52.462Z,99224.84
2023-01-19T07:26:38.222Z,99211.34
2023-01-19T07:29:24.674Z,99236.69
2023-01-19T07:32:10.703Z,99251.00
2023-01-19T07:34:56.204Z,99246.41
2023-01-19T07:37:41.956Z,99224.03
2023-01-19T07:40:29.074Z,99251.28
2023-01-19T07:43:15.639Z,99254.25
2023-01-19T07:46:05.719Z,99260.44
2023-01-19T07:48:51.934Z,99264.22
2023-01-19T07:51:37.664Z,99260.75
2023-01-19T07:54:23.815Z,99260.44
2023-01-19T07:57:09.327Z,99264.50
2023-01-19T07:59:54.957Z,99256.66
2023-01-19T08:02:41.183Z,99254.50
2023-01-19T08:05:29.249Z,99272.84
2023-01-19T08:08:14.804Z,99261.81
2023-01-19T08:11:00.849Z,99256.41
2023-01-19T08:13:46.547Z,99224.00
2023-01-19T08:16:32.361Z,99258.31
2023-01-19T08:19:19.393Z,99256.66
2023-01-19T08:22:06.099Z,99216.75
2023-01-19T08:24:51.959Z,99260.44
2023-01-19T08:27:38.318Z,99268.28
2023-01-19T08:30:26.749Z,99219.44
2023-01-19T08:33:13.886Z,99272.84
2023-01-19T08:35:59.393Z,99271.78
2023-01-19T08:38:46.224Z,99251.81
2023-01-19T08:41:32.477Z,99258.31
2023-01-19T08:44:18.462Z,99250.47
2023-01-19T08:47:04.034Z,99272.59
2023-01-19T08:49:49.779Z,99248.03
2023-01-19T08:52:35.631Z,99242.91
2023-01-19T08:55:21.603Z,99268.81
2023-01-19T08:58:08.830Z,99248.59
2023-01-19T09:00:56.104Z,99287.16
2023-01-19T09:03:41.999Z,99284.22
2023-01-19T09:06:28.516Z,99244.28
2023-01-19T09:09:14.246Z,99231.56
2023-01-19T09:11:59.880Z,99289.06
2023-01-19T09:14:45.415Z,99280.69
2023-01-19T09:17:31.404Z,99285.84
2023-01-19T09:20:17.149Z,99300.66
2023-01-19T09:23:03.545Z,99297.72
2023-01-19T09:25:49.532Z,99272.06
2023-01-19T09:28:35.572Z,99250.72
2023-01-19T09:31:21.520Z,99303.38
2023-01-19T09:34:07.525Z,99292.03
2023-01-19T09:36:53.153Z,99236.72
2023-01-19T09:39:38.807Z,99259.66
2023-01-19T09:42:43.954Z,99295.28
2023-01-19T09:45:35.897Z,99298.78
2023-01-19T09:48:48.514Z,99274.50
2023-01-19T09:51:40.776Z,99283.38
2023-01-19T09:54:41.117Z,99278.81
2023-01-19T09:57:27.682Z,99287.72
2023-01-19T10:00:17.761Z,99296.38
2023-01-19T10:03:16.358Z,99285.81
2023-01-19T10:06:04.864Z,99297.16
2023-01-19T10:09:22.769Z,99293.34
2023-01-19T10:12:19.825Z,99291.47
2023-01-19T10:15:40.920Z,99270.16
2023-01-19T10:18:34.615Z,99308.47
2023-01-19T10:21:23.606Z,99304.41
2023-01-19T10:24:18.726Z,99315.22
2023-01-19T10:27:11.201Z,99309.81
2023-01-19T10:29:57.817Z,99314.97
2023-01-19T10:32:44.558Z,99266.38
2023-01-19T10:35:30.196Z,99302.28
2023-01-19T10:38:19.882Z,99321.97
2023-01-19T10:41:07.982Z,99314.94
2023-01-19T10:44:05.444Z,99304.69
2023-01-19T10:46:51.491Z,99308.69
2023-01-19T10:49:42.863Z,99257.72
2023-01-19T10:52:34.202Z,99280.63
2023-01-19T10:55:40.341Z,99310.84
2023-01-19T10:58:31.154Z,99317.31
2023-01-19T11:01:21.930Z,99308.13
2023-01-19T11:04:29.405Z,99294.09
2023-01-19T11:07:33.002Z,99299.25
2023-01-19T11:10:25.277Z,99240.97
2023-01-19T11:13:13.331Z,99289.00
2023-01-19T11:16:03.710Z,99295.72
2023-01-19T11:18:52.519Z,99263.34
2023-01-19T11:21:38.284Z,99294.38
2023-01-19T11:24:24.755Z,99302.47
2023-01-19T11:27:10.709Z,99300.88
2023-01-19T11:30:05.311Z,99247.44
2023-01-19T11:32:51.129Z,99279.81
2023-01-19T11:35:41.395Z,99300.56
2023-01-19T11:38:27.681Z,99285.22
2023-01-19T11:41:20.733Z,99296.78
2023-01-19T11:44:18.529Z,99290.31
2023-01-19T11:47:06.793Z,99290.06
2023-01-19T11:49:59.533Z,99265.25
2023-01-19T11:52:53.526Z,99293.34
2023-01-19T11:56:01.491Z,99324.09
2023-01-19T11:58:47.507Z,99276.06
2023-01-19T12:01:34.838Z,99279.84
2023-01-19T12:04:27.611Z,99315.44
2023-01-19T12:07:14.898Z,99303.28
2023-01-19T12:10:16.687Z,99315.16
2023-01-19T12:13:03.231Z,99307.59
2023-01-19T12:16:12.944Z,99298.41
2023-01-19T12:19:05.537Z,99247.97
2023-01-19T12:21:52.574Z,99282.19
2023-01-19T12:24:47.449Z,99293.81
2023-01-19T12:27:41.608Z,99270.63
2023-01-19T12:30:30.800Z,99182.97
2023-01-19T12:33:23.046Z,99304.88
2023-01-19T12:36:30.037Z,99305.97
2023-01-19T12:39:21.473Z,99205.13
2023-01-19T12:42:21.337Z,99262.81
2023-01-19T12:45:37.557Z,99294.13
2023-01-19T12:48:25.941Z,99307.38
2023-01-19T12:51:23.606Z,99275.53
2023-01-19T12:54:21.196Z,99314.97
2023-01-19T12:57:23.637Z,99313.59
2023-01-19T13:00:21.626Z,99273.66
2023-01-19T13:03:19.620Z,99311.97
2023-01-19T13:06:06.270Z,99245.06
2023-01-19T13:09:02.603Z,99225.06
2023-01-19T13:12:15.699Z,99302.25
2023-01-19T13:15:22.083Z,99310.34
2023-01-19T13:18:09.697Z,99275.81
2023-01-19T13:21:10.628Z,99306.03
2023-01-19T13:24:03.873Z,99237.22
2023-01-19T13:27:01.106Z,99297.66
2023-01-19T13:29:51.984Z,99280.91
2023-01-19T13:32:41.375Z,99213.44
2023-01-19T13:35:32.572Z,99184.88
2023-01-19T13:38:22.593Z,99217.00
2023-01-19T13:41:13.224Z,99255.53
2023-01-19T13:44:08.756Z,99246.06
2023-01-19T13:46:59.975Z,99181.63
2023-01-19T13:49:46.937Z,99291.66
2023-01-19T13:52:37.734Z,99298.13
2023-01-19T13:55:28.409Z,99301.66
2023-01-19T13:58:23.824Z,99252.84
2023-01-19T14:01:29.099Z,99273.38
2023-01-19T14:04:34.257Z,99285.47
2023-01-19T14:07:26.452Z,99239.88
2023-01-19T14:10:15.489Z,99315.16
2023-01-19T14:13:06.739Z,99255.00
2023-01-19T14:15:56.775Z,99318.41
2023-01-19T14:18:43.909Z,99249.09
2023-01-19T14:21:50.373Z,99306.31
2023-01-19T14:24:37.380Z,99238.84
2023-01-19T14:27:24.834Z,99286.06
2023-01-19T14:30:25.764Z,99294.19
2023-01-19T14:33:44.299Z,99327.38
2023-01-19T14:36:36.295Z,99341.44
2023-01-19T14:39:33.512Z,99309.84
2023-01-19T14:42:26.931Z,99264.25
2023-01-19T14:45:34.694Z,99339.28
2023-01-19T14:48:22.588Z,99335.50
2023-01-19T14:51:22.939Z,99336.88
2023-01-19T14:54:17.328Z,99307.97
2023-01-19T14:57:17.141Z,99253.97
2023-01-19T15:00:17.762Z,99215.63
2023-01-19T15:03:06.468Z,99299.34
2023-01-19T15:06:04.566Z,99353.63
2023-01-19T15:08:56.271Z,99276.63
2023-01-19T15:11:51.024Z,99256.66
2023-01-19T15:14:36.689Z,99338.50
2023-01-19T15:17:25.857Z,99269.09
2023-01-19T15:20:20.784Z,99302.03
2023-01-19T15:23:14.136Z,99321.44
2023-01-19T15:26:03.280Z,99356.81
2023-01-19T15:28:56.237Z,99310.63
2023-01-19T15:31:44.306Z,99358.44
2023-01-19T15:34:44.583Z,99277.44
2023-01-19T15:37:36.561Z,99311.19
2023-01-19T15:40:31.452Z,99324.41
2023-01-19T15:43:17.744Z,99369.22
2023-01-19T15:46:07.540Z,99276.56
2023-01-19T15:48:54.204Z,99317.63
2023-01-19T15:51:43.882Z,99290.91
2023-01-19T15:54:33.946Z,99389.22
2023-01-19T15:57:21.855Z,99380.03
2023-01-19T16:00:11.486Z,99370.59
2023-01-19T16:03:05.813Z,99328.47
2023-01-19T16:05:52.524Z,99381.41
2023-01-19T16:08:43.340Z,99317.34
2023-01-19T16:11:33.553Z,99397.03
2023-01-19T16:14:20.008Z,99365.63
2023-01-19T16:17:07.730Z,99383.50
2023-01-19T16:19:58.439Z,99372.13
2023-01-19T16:22:44.953Z,99410.25
2023-01-19T16:25:33.580Z,99399.94
2023-01-19T16:28:25.759Z,99346.47
2023-01-19T16:31:12.389Z,99414.28
2023-01-19T16:34:01.717Z,99331.56
2023-01-19T16:36:50.496Z,99344.00
2023-01-19T16:39:36.837Z,99287.78
2023-01-19T16:42:29.092Z,99374.78
2023-01-19T16:45:20.272Z,99376.38
2023-01-19T16:48:14.171Z,99433.09
2023-01-19T16:51:06.808Z,99434.47
2023-01-19T16:53:55.140Z,99434.72
2023-01-19T16:56:46.187Z,99398.22
2023-01-19T16:59:32.780Z,99367.66
2023-01-19T17:02:19.823Z,99375.22
2023-01-19T17:05:10.245Z,99457.97
2023-01-19T17:08:00.147Z,99452.81
2023-01-19T17:10:49.644Z,99419.53
2023-01-19T17:13:38.261Z,99452.56
2023-01-19T17:16:26.263Z,99329.75
2023-01-19T17:19:17.692Z,99335.16
2023-01-19T17:22:07.200Z,99432.47
2023-01-19T17:24:53.831Z,99343.66
2023-01-19T17:27:43.296Z,99355.31
2023-01-19T17:30:30.209Z,99349.31
2023-01-19T17:33:26.414Z,99364.66
2023-01-19T17:36:38.438Z,99411.66
2023-01-19T17:39:45.154Z,99476.84
2023-01-19T17:48:26.640Z,99373.28
2023-01-19T17:52:37.591Z,99370.56
2023-01-19T18:05:31.279Z,99439.41
2023-01-19T18:08:17.042Z,99482.69
2023-01-19T18:11:03.286Z,99493.09
2023-01-19T18:13:50.718Z,99486.81
2023-01-19T18:16:36.868Z,99483.81
2023-01-19T18:19:23.559Z,99482.69
2023-01-19T18:22:10.671Z,99440.66
2023-01-19T18:24:59.414Z,99478.25
2023-01-19T18:27:46.272Z,99447.41
2023-01-19T18:30:34.967Z,99468.50
2023-01-19T18:33:21.157Z,99473.00
2023-01-19T18:36:08.270Z,99457.19
2023-01-19T18:38:54.113Z,99464.53
2023-01-19T18:41:42.314Z,99467.09
2023-01-19T18:44:28.888Z,99455.84
2023-01-19T18:47:15.012Z,99430.34
2023-01-19T18:50:01.143Z,99472.78
2023-01-19T18:52:47.820Z,99478.44
2023-01-19T18:55:36.422Z,99473.72
2023-01-19T18:58:23.120Z,99482.19
2023-01-19T19:01:24.792Z,99441.28
2023-01-19T19:04:10.594Z,99473.00
2023-01-19T19:06:56.594Z,99433.25
2023-01-19T19:09:42.309Z,99460.47
2023-01-19T19:12:28.900Z,99476.97
2023-01-19T19:15:16.813Z,99437.13
2023-01-19T19:18:13.534Z,99372.44
2023-01-19T19:21:16.892Z,99355.88
2023-01-19T19:24:17.115Z,99473.41
2023-01-19T19:27:06.676Z,99356.06
2023-01-19T19:29:57.598Z,99490.00
2023-01-19T19:33:17.746Z,99435.75
2023-01-19T19:36:06.820Z,99462.03
2023-01-19T19:38:52.973Z,99487.09
2023-01-19T19:41:39.064Z,99500.06
2023-01-19T19:44:24.950Z,99503.88
2023-01-19T19:47:11.120Z,99454.81
2023-01-19T19:49:57.028Z,99500.63
2023-01-19T19:52:43.455Z,99494.44
2023-01-19T19:55:29.576Z,99502.81
2023-01-19T19:58:16.230Z,99469.84
2023-01-19T20:01:18.092Z,99463.84
2023-01-19T20:04:09.479Z,99507.13
2023-01-19T20:06:55.319Z,99505.13
2023-01-19T20:09:41.935Z,99488.69
2023-01-19T20:12:27.632Z,99507.91
2023-01-19T20:15:14.024Z,99516.47
2023-01-19T20:17:59.821Z,99516.66
2023-01-19T20:20:46.441Z,99502.06
2023-01-19T20:23:34.267Z,99502.06
2023-01-19T20:26:25.290Z,99513.72
2023-01-19T20:29:12.008Z,99517.13
2023-01-19T20:31:58.228Z,99491.75
2023-01-19T20:34:44.652Z,99510.91
2023-01-19T20:37:30.733Z,99518.81
2023-01-19T20:40:17.208Z,99523.53
2023-01-19T20:43:03.672Z,99520.16
2023-01-19T20:45:51.882Z,99505.44
2023-01-19T20:48:39.319Z,99512.28
2023-01-19T20:51:27.033Z,99518.16
2023-01-19T20:54:15.933Z,99458.97
2023-01-19T20:57:01.625Z,99520.00
2023-01-19T20:59:47.600Z,99538.31
2023-01-19T21:02:33.189Z,99541.50
2023-01-19T21:05:20.008Z,99534.91
2023-01-19T21:08:06.375Z,99482.72
2023-01-19T21:10:56.385Z,99536.38
2023-01-19T21:13:42.324Z,99528.78
2023-01-19T21:16:30.539Z,99545.66
2023-01-19T21:19:17.235Z,99549.56
2023-01-19T21:22:03.467Z,99530.28
2023-01-19T21:24:49.484Z,99552.25
2023-01-19T21:27:35.577Z,99538.25
2023-01-19T21:30:21.761Z,99554.31
2023-01-19T21:33:07.947Z,99558.28
2023-01-19T21:35:57.770Z,99569.03
2023-01-19T21:38:44.022Z,99561.50
2023-01-19T21:41:30.628Z,99584.72
2023-01-19T21:44:16.690Z,99584.94
2023-01-19T21:47:02.362Z,99587.53
2023-01-19T21:49:48.551Z,99573.44
2023-01-19T21:52:34.216Z,99578.69
2023-01-19T21:55:20.318Z,99604.94
2023-01-19T21:58:06.503Z,99609.13
2023-01-19T22:01:02.256Z,99590.75
2023-01-19T22:03:48.044Z,99610.53
2023-01-19T22:06:33.949Z,99615.13
2023-01-19T22:09:19.379Z,99609.88
2023-01-19T22:12:06.013Z,99603.00
2023-01-19T22:14:52.332Z,99611.75
2023-01-19T22:17:38.723Z,99614.53
2023-01-19T22:20:24.530Z,99622.09
2023-01-19T22:23:10.770Z,99551.75
2023-01-19T22:26:01.192Z,99610.97
2023-01-19T22:28:47.585Z,99610.84
2023-01-19T22:31:34.666Z,99605.84
2023-01-19T22:34:20.404Z,99614.13
2023-01-19T22:37:06.447Z,99600.59
2023-01-19T22:39:53.301Z,99592.66
2023-01-19T22:42:39.143Z,99583.00
2023-01-19T22:45:25.171Z,99599.88
2023-01-19T22:48:11.077Z,99585.88
2023-01-19T22:50:57.557Z,99564.22
2023-01-19T22:53:43.353Z,99615.97
2023-01-19T22:56:30.918Z,99631.44
2023-01-19T22:59:16.628Z,99619.44
2023-01-19T23:02:02.501Z,99613.91
2023-01-19T23:04:48.273Z,99624.88
2023-01-19T23:07:34.513Z,99629.78
2023-01-19T23:10:20.244Z,99628.13
2023-01-19T23:13:06.230Z,99627.09
2023-01-19T23:15:51.815Z,99638.41
2023-01-19T23:18:37.982Z,99653.47
2023-01-19T23:21:25.971Z,99653.72
2023-01-19T23:24:12.335Z,99654.88
2023-01-19T23:26:57.804Z,99640.03
2023-01-19T23:29:44.134Z,99622.59
2023-01-19T23:32:30.216Z,99635.84
2023-01-19T23:35:16.493Z,99615.03
2023-01-19T23:38:01.823Z,99636.47
2023-01-19T23:40:48.391Z,99612.59
2023-01-19T23:43:33.993Z,99625.38
2023-01-19T23:46:20.834Z,99642.28
2023-01-19T23:49:06.773Z,99640.88
2023-01-19T23:51:53.221Z,99661.03
2023-01-19T23:54:39.091Z,99629.44
2023-01-19T23:57:24.747Z,99639.09
